Time;durP1;ratioP1;P1;durP2;ratioP2;P2;SDS_P1;SDS_P2;PMS_P1;PMS_P2;Temp;Humidity;BMP_temperature;BMP_pressure;BME280_temperature;BME280_humidity;BME280_pressure;Samples;Min_cycle;Max_cycle;Signal;HPM_P1;HPM_P2
2021/01/11 00:01:42;;;;;;;64.18;34.83;;;77.70;2022.40;;;;;;5072717;28;20031;-66
2021/01/11 00:04:09;;;;;;;70.00;37.10;;;77.70;2022.40;;;;;;5071399;28;20518;-67
2021/01/11 00:06:40;;;;;;;68.32;38.33;;;77.70;2022.40;;;;;;5072553;28;20040;-69
2021/01/11 00:09:08;;;;;;;69.65;38.50;;;77.70;2048.00;;;;;;5070528;28;20441;-68
2021/01/11 00:11:35;;;;;;;71.95;38.95;;;77.70;2022.40;;;;;;5075312;28;20146;-67
2021/01/11 00:14:05;;;;;;;75.85;39.22;;;77.70;2022.40;;;;;;5076293;28;20021;-66
2021/01/11 00:16:32;;;;;;;70.65;38.83;;;77.70;2022.40;;;;;;5076196;28;20043;-69
2021/01/11 00:18:58;;;;;;;67.00;37.58;;;77.70;2022.40;;;;;;5075333;28;20021;-68
2021/01/11 00:21:25;;;;;;;66.20;36.03;;;77.70;2022.40;;;;;;5076277;28;20025;-68
2021/01/11 00:23:51;;;;;;;69.30;37.13;;;77.70;2022.40;;;;;;5076456;28;20031;-69
2021/01/11 00:26:17;;;;;;;67.50;36.50;;;102.40;2022.40;;;;;;5075276;28;20046;-68
2021/01/11 00:28:43;;;;;;;65.93;36.60;;;102.40;2022.40;;;;;;5075647;28;20466;-68
2021/01/11 00:31:10;;;;;;;66.65;37.35;;;77.70;1996.80;;;;;;5075552;28;20082;-69
2021/01/11 00:33:40;;;;;;;67.50;37.78;;;77.70;2022.40;;;;;;5075422;28;20485;-70
2021/01/11 00:36:14;;;;;;;64.80;35.20;;;102.40;2022.40;;;;;;5074791;28;20031;-68
2021/01/11 00:38:45;;;;;;;63.05;35.10;;;102.40;2022.40;;;;;;5073058;28;20032;-68
2021/01/11 00:41:20;;;;;;;65.45;36.58;;;102.40;2022.40;;;;;;5075821;28;20423;-69
2021/01/11 00:43:47;;;;;;;69.43;37.35;;;77.70;2022.40;;;;;;5074455;28;20159;-68
2021/01/11 00:46:27;;;;;;;66.95;35.83;;;77.70;2022.40;;;;;;5073583;28;20040;-69
2021/01/11 00:48:57;;;;;;;65.28;36.28;;;77.70;2022.40;;;;;;5073227;28;20512;-70
2021/01/11 00:51:25;;;;;;;65.65;34.88;;;77.70;2022.40;;;;;;5075432;28;20455;-70
2021/01/11 00:53:51;;;;;;;66.72;35.92;;;77.70;2022.40;;;;;;5072929;28;20031;-70
2021/01/11 00:56:19;;;;;;;66.05;35.95;;;77.70;2022.40;;;;;;5075720;28;20020;-69
2021/01/11 00:58:45;;;;;;;62.80;34.15;;;77.60;1996.80;;;;;;5075297;28;20046;-69
2021/01/11 01:01:13;;;;;;;59.63;34.05;;;77.70;2022.40;;;;;;5075357;28;20021;-68
2021/01/11 01:03:39;;;;;;;66.05;34.70;;;77.70;2022.40;;;;;;5075365;28;20042;-69
2021/01/11 01:06:09;;;;;;;70.70;37.58;;;77.70;2022.40;;;;;;5074547;28;20040;-68
2021/01/11 01:08:35;;;;;;;63.08;36.20;;;77.70;2022.40;;;;;;5074974;28;20493;-70
2021/01/11 01:11:01;;;;;;;71.50;36.60;;;77.70;2022.40;;;;;;5075033;28;20046;-69
2021/01/11 01:13:27;;;;;;;67.80;35.80;;;77.70;2022.40;;;;;;5074661;28;20028;-70
2021/01/11 01:15:54;;;;;;;69.05;35.50;;;77.70;2048.00;;;;;;5074649;28;20025;-69
2021/01/11 01:18:25;;;;;;;65.90;35.78;;;77.70;2048.00;;;;;;5075902;28;20024;-71
2021/01/11 01:20:52;;;;;;;69.82;35.03;;;77.70;2048.00;;;;;;5075295;28;20097;-72
2021/01/11 01:23:25;;;;;;;65.80;36.15;;;77.70;2022.40;;;;;;5075074;28;20075;-71
2021/01/11 01:25:56;;;;;;;66.50;34.78;;;77.70;2022.40;;;;;;5075428;28;20037;-71
2021/01/11 01:28:28;;;;;;;61.08;33.80;;;77.70;2022.40;;;;;;5075397;28;20382;-72
2021/01/11 01:30:58;;;;;;;62.30;33.92;;;77.70;2048.00;;;;;;5075414;28;20093;-72
2021/01/11 01:33:29;;;;;;;57.83;32.03;;;77.70;2022.40;;;;;;5075399;28;20027;-72
2021/01/11 01:36:01;;;;;;;61.38;34.15;;;77.70;2048.00;;;;;;5075134;28;20028;-70
2021/01/11 01:38:33;;;;;;;58.60;33.80;;;77.70;2022.40;;;;;;5075142;28;20031;-70
2021/01/11 01:41:04;;;;;;;58.17;33.67;;;77.70;2022.40;;;;;;5074935;28;20036;-70
2021/01/11 01:43:36;;;;;;;62.25;33.58;;;77.70;2048.00;;;;;;5074967;28;20071;-71
2021/01/11 01:46:19;;;;;;;62.13;33.33;;;77.70;2048.00;;;;;;5074786;28;20036;-70
2021/01/11 01:48:52;;;;;;;65.82;34.97;;;77.70;2022.40;;;;;;5074846;28;20037;-71
2021/01/11 01:51:23;;;;;;;60.58;33.95;;;77.70;2048.00;;;;;;5074957;28;20039;-71
2021/01/11 01:53:55;;;;;;;62.75;35.22;;;102.40;2048.00;;;;;;5074778;28;20024;-71
2021/01/11 01:56:30;;;;;;;62.10;34.13;;;102.40;2048.00;;;;;;5074801;28;20029;-70
2021/01/11 01:59:02;;;;;;;66.05;36.05;;;102.40;2022.40;;;;;;5074552;28;20035;-71
2021/01/11 02:01:35;;;;;;;64.85;35.92;;;102.40;2048.00;;;;;;5074519;28;20024;-69
2021/01/11 02:04:06;;;;;;;65.78;35.88;;;102.40;2048.00;;;;;;5074570;28;20024;-70
2021/01/11 02:06:42;;;;;;;65.32;34.47;;;102.40;2048.00;;;;;;5074262;28;20044;-71
2021/01/11 02:09:42;;;;;;;63.67;35.33;;;102.40;2022.40;;;;;;5074775;28;20021;-72
2021/01/11 02:12:24;;;;;;;64.78;34.63;;;102.40;2022.40;;;;;;5074458;28;20047;-71
2021/01/11 02:15:11;;;;;;;60.97;33.25;;;102.40;2022.40;;;;;;5074497;28;20482;-72
2021/01/11 02:18:00;;;;;;;59.10;32.17;;;102.40;2022.40;;;;;;5074452;28;20016;-72
2021/01/11 02:21:05;;;;;;;60.25;33.45;;;102.40;2022.40;;;;;;5074427;28;20120;-73
2021/01/11 02:23:58;;;;;;;64.75;35.33;;;102.40;2022.40;;;;;;5074291;28;20028;-70
2021/01/11 02:27:04;;;;;;;61.58;34.60;;;102.40;2048.00;;;;;;5074323;28;20039;-71
2021/01/11 02:29:48;;;;;;;;;;;102.40;2022.40;;;;;;5074672;28;20107;-70
2021/01/11 02:32:21;;;;;;;57.70;31.20;;;102.40;2022.40;;;;;;5073530;28;19911;-70
2021/01/11 02:34:55;;;;;;;62.20;34.25;;;102.40;2048.00;;;;;;5074425;28;20027;-70
2021/01/11 02:37:28;;;;;;;64.85;33.88;;;102.40;2022.40;;;;;;5074079;28;20475;-70
2021/01/11 02:40:03;;;;;;;53.50;32.63;;;102.40;2022.40;;;;;;5073920;28;20047;-70
2021/01/11 02:42:37;;;;;;;57.72;32.22;;;102.40;2022.40;;;;;;5073948;28;20070;-70
2021/01/11 02:45:11;;;;;;;65.10;32.85;;;102.40;2022.40;;;;;;5073992;28;20023;-70
2021/01/11 02:48:01;;;;;;;59.87;33.27;;;102.40;2022.40;;;;;;5074077;28;20471;-72
2021/01/11 02:50:55;;;;;;;57.65;32.63;;;102.40;2022.40;;;;;;5074048;28;20024;-70
2021/01/11 02:54:09;;;;;;;60.92;32.38;;;102.40;2022.40;;;;;;5072736;28;20035;-70
2021/01/11 02:57:03;;;;;;;55.92;30.80;;;102.40;2048.00;;;;;;4992543;28;20034;-70
2021/01/11 02:59:53;;;;;;;59.67;31.80;;;102.40;2022.40;;;;;;4992434;28;20041;-70
2021/01/11 03:02:23;;;;;;;60.60;32.97;;;102.40;2048.00;;;;;;4992381;28;20022;-70
2021/01/11 03:04:55;;;;;;;58.70;32.30;;;102.40;2048.00;;;;;;4992228;28;20506;-70
2021/01/11 03:07:25;;;;;;;59.63;33.47;;;102.40;2022.40;;;;;;4992364;28;20512;-69
2021/01/11 03:09:58;;;;;;;56.83;32.95;;;102.40;2022.40;;;;;;4992279;28;20023;-70
2021/01/11 03:12:31;;;;;;;58.58;30.45;;;102.40;2022.40;;;;;;4992372;28;20026;-69
2021/01/11 03:15:02;;;;;;;55.17;31.33;;;102.40;2022.40;;;;;;4992149;28;20032;-69
2021/01/11 03:17:33;;;;;;;57.88;29.65;;;102.50;2048.00;;;;;;4992544;28;20057;-68
2021/01/11 03:20:04;;;;;;;55.65;30.08;;;102.50;2022.40;;;;;;4992218;28;20041;-68
2021/01/11 03:22:35;;;;;;;53.60;31.05;;;102.50;2022.40;;;;;;4992244;28;20030;-69
2021/01/11 03:25:08;;;;;;;57.83;31.63;;;102.50;2022.40;;;;;;4992537;28;20064;-69
2021/01/11 03:27:42;;;;;;;54.33;31.48;;;102.50;2022.40;;;;;;4991804;28;20131;-69
2021/01/11 03:30:14;;;;;;;56.80;29.85;;;102.50;2022.40;;;;;;4991958;28;20141;-69
2021/01/11 03:32:42;;;;;;;56.45;31.08;;;102.50;2022.40;;;;;;5022469;28;20060;-69
2021/01/11 03:35:14;;;;;;;57.05;31.58;;;102.50;2022.40;;;;;;5073429;28;20104;-70
2021/01/11 03:37:46;;;;;;;53.03;30.35;;;102.50;2022.40;;;;;;5073692;28;20409;-69
2021/01/11 03:40:20;;;;;;;55.65;30.15;;;102.60;2022.40;;;;;;5073384;28;20351;-69
2021/01/11 03:42:54;;;;;;;53.47;29.92;;;102.50;2022.40;;;;;;5074408;28;20036;-71
2021/01/11 03:45:26;;;;;;;56.00;30.33;;;102.50;2022.40;;;;;;5077432;28;20119;-71
2021/01/11 03:47:57;;;;;;;52.92;29.77;;;102.50;2022.40;;;;;;5077331;28;20024;-70
2021/01/11 03:50:29;;;;;;;52.67;29.73;;;102.50;2022.40;;;;;;5077580;28;20027;-70
2021/01/11 03:53:00;;;;;;;51.13;27.98;;;102.50;2022.40;;;;;;5077075;28;20043;-70
2021/01/11 03:55:32;;;;;;;50.08;29.35;;;102.60;2022.40;;;;;;5077233;28;20056;-70
2021/01/11 03:58:03;;;;;;;48.60;28.67;;;102.60;2022.40;;;;;;5076990;28;20021;-70
2021/01/11 04:00:37;;;;;;;50.88;29.25;;;102.60;2022.40;;;;;;5077037;28;20458;-70
2021/01/11 04:03:11;;;;;;;52.38;28.30;;;102.60;2022.40;;;;;;5077132;28;20104;-70
2021/01/11 04:05:50;;;;;;;54.83;29.92;;;102.60;1996.80;;;;;;5076627;28;20068;-71
2021/01/11 04:08:23;;;;;;;54.50;29.73;;;102.60;1996.80;;;;;;5076780;28;20500;-75
2021/01/11 04:10:55;;;;;;;48.50;27.15;;;102.60;2022.40;;;;;;5076769;28;20055;-70
2021/01/11 04:13:26;;;;;;;55.03;29.30;;;102.60;1996.80;;;;;;5076844;28;20078;-70
2021/01/11 04:15:58;;;;;;;49.97;27.85;;;102.60;2022.40;;;;;;5076521;28;20036;-69
2021/01/11 04:18:29;;;;;;;51.17;28.30;;;102.60;1996.80;;;;;;5076958;28;20344;-69
2021/01/11 04:21:01;;;;;;;51.05;28.13;;;102.60;2022.40;;;;;;5076559;28;20016;-69
2021/01/11 04:23:35;;;;;;;49.40;26.80;;;102.60;2022.40;;;;;;5076753;28;20115;-69
2021/01/11 04:26:07;;;;;;;49.83;27.15;;;102.60;2022.40;;;;;;5076637;28;20029;-69
2021/01/11 04:28:40;;;;;;;50.75;27.27;;;102.60;1996.80;;;;;;5076741;28;20093;-69
2021/01/11 04:31:22;;;;;;;50.17;27.88;;;102.60;2022.40;;;;;;5076498;28;20032;-69
2021/01/11 04:33:53;;;;;;;51.88;27.55;;;102.60;1996.80;;;;;;5076569;28;20020;-69
2021/01/11 04:36:27;;;;;;;47.33;27.23;;;102.60;2022.40;;;;;;5076257;28;20118;-69
2021/01/11 04:38:53;;;;;;;48.22;26.52;;;102.60;2022.40;;;;;;5076202;28;20032;-69
2021/01/11 04:41:35;;;;;;;45.72;26.30;;;102.60;1996.80;;;;;;5072978;28;20028;-71
2021/01/11 04:44:10;;;;;;;48.70;27.42;;;102.60;1996.80;;;;;;5076019;28;20429;-70
2021/01/11 04:46:43;;;;;;;44.67;26.90;;;102.60;2022.40;;;;;;5076101;28;20040;-69
2021/01/11 04:49:16;;;;;;;50.72;25.73;;;102.60;2022.40;;;;;;5076327;28;20051;-69
2021/01/11 04:51:46;;;;;;;51.50;28.95;;;102.60;1996.80;;;;;;5076100;28;20016;-69
2021/01/11 04:54:20;;;;;;;53.35;29.20;;;102.60;2022.40;;;;;;5075508;28;20020;-71
2021/01/11 04:56:58;;;;;;;62.10;32.13;;;102.80;2048.00;;;;;;5075942;28;20515;-69
2021/01/11 04:59:36;;;;;;;63.47;30.38;;;102.80;1996.80;;;;;;5075946;28;20048;-69
2021/01/11 05:02:11;;;;;;;56.63;28.73;;;102.80;1996.80;;;;;;5075955;28;20032;-69
2021/01/11 05:04:42;;;;;;;52.05;29.58;;;102.70;1996.80;;;;;;5075753;28;20039;-70
2021/01/11 05:07:22;;;;;;;53.22;29.42;;;102.70;1996.80;;;;;;5075636;28;20052;-69
2021/01/11 05:09:53;;;;;;;53.42;29.35;;;102.70;1996.80;;;;;;5075742;28;20028;-72
2021/01/11 05:12:26;;;;;;;66.05;32.13;;;102.60;1996.80;;;;;;5075512;28;20036;-72
2021/01/11 05:15:16;;;;;;;55.15;30.27;;;102.70;1996.80;;;;;;5075514;28;20029;-73
2021/01/11 05:17:50;;;;;;;55.35;28.52;;;102.70;2048.00;;;;;;5075787;28;20103;-74
2021/01/11 05:20:21;;;;;;;54.10;28.20;;;102.70;2022.40;;;;;;5075545;28;20108;-69
2021/01/11 05:23:07;;;;;;;49.08;27.45;;;102.70;1996.80;;;;;;5075688;28;20111;-70
2021/01/11 05:25:40;;;;;;;50.70;28.98;;;102.70;1996.80;;;;;;5075260;28;20470;-69
2021/01/11 05:28:16;;;;;;;49.70;28.60;;;102.70;1996.80;;;;;;5076153;28;20048;-71
2021/01/11 05:30:50;;;;;;;50.42;28.77;;;102.70;1996.80;;;;;;5075405;28;20028;-70
2021/01/11 05:33:21;;;;;;;59.50;31.55;;;102.70;1996.80;;;;;;5075319;28;20021;-70
2021/01/11 05:36:07;;;;;;;58.78;32.25;;;102.70;1996.80;;;;;;5075346;28;20052;-69
2021/01/11 05:38:51;;;;;;;55.13;29.20;;;102.70;1996.80;;;;;;5075234;28;20020;-68
2021/01/11 05:41:30;;;;;;;56.25;30.10;;;102.60;1996.80;;;;;;5075321;28;20033;-68
2021/01/11 05:44:13;;;;;;;57.88;30.42;;;102.60;1996.80;;;;;;5074934;28;20024;-70
2021/01/11 05:46:46;;;;;;;52.55;29.02;;;102.60;1996.80;;;;;;5074732;28;20029;-71
2021/01/11 05:49:17;;;;;;;55.28;28.38;;;102.60;1996.80;;;;;;5075134;28;20028;-69
2021/01/11 05:51:46;;;;;;;51.70;28.58;;;102.60;1996.80;;;;;;5075069;28;20031;-67
2021/01/11 05:54:27;;;;;;;64.05;32.67;;;102.60;1996.80;;;;;;5074995;28;20020;-68
2021/01/11 05:56:57;;;;;;;67.43;34.00;;;102.60;1996.80;;;;;;5074741;28;20025;-68
2021/01/11 05:59:25;;;;;;;69.10;35.42;;;102.60;1996.80;;;;;;5074541;28;20413;-68
2021/01/11 06:02:02;;;;;;;77.28;38.53;;;102.60;1996.80;;;;;;5074900;28;20021;-69
2021/01/11 06:04:34;;;;;;;80.90;39.40;;;102.60;1996.80;;;;;;5073651;28;20024;-69
2021/01/11 06:07:05;;;;;;;98.72;46.53;;;102.60;1996.80;;;;;;5073544;28;20078;-70
2021/01/11 06:09:40;;;;;;;103.03;50.20;;;102.60;1996.80;;;;;;5072957;28;20159;-69
2021/01/11 06:12:10;;;;;;;110.00;52.78;;;102.60;1996.80;;;;;;5074622;28;20032;-69
2021/01/11 06:14:42;;;;;;;101.75;51.83;;;102.60;1996.80;;;;;;5074547;28;20033;-77
2021/01/11 06:17:09;;;;;;;99.20;52.40;;;102.60;1996.80;;;;;;5074505;28;20052;-70
2021/01/11 06:19:41;;;;;;;93.50;46.17;;;102.60;1996.80;;;;;;5074541;28;20028;-77
2021/01/11 06:22:13;;;;;;;91.25;46.97;;;102.60;1996.80;;;;;;5073256;28;20505;-73
2021/01/11 06:24:42;;;;;;;82.35;43.22;;;102.60;1996.80;;;;;;5074491;28;20366;-74
2021/01/11 06:27:20;;;;;;;75.30;43.70;;;102.60;1996.80;;;;;;5074178;28;20033;-69
2021/01/11 06:29:51;;;;;;;79.07;41.85;;;102.60;1996.80;;;;;;5074205;28;20024;-64
2021/01/11 06:32:24;;;;;;;80.15;44.35;;;102.60;1971.20;;;;;;5074902;28;20028;-64
2021/01/11 06:35:01;;;;;;;96.07;49.80;;;102.60;1996.80;;;;;;5074101;28;20021;-72
2021/01/11 06:37:32;;;;;;;113.50;55.10;;;102.60;1996.80;;;;;;5074009;28;20086;-63
2021/01/11 06:40:07;;;;;;;111.47;55.95;;;102.60;1996.80;;;;;;5074155;28;20020;-65
2021/01/11 06:42:39;;;;;;;101.35;49.97;;;102.60;1996.80;;;;;;5073999;28;20028;-69
2021/01/11 06:45:11;;;;;;;100.00;49.15;;;102.60;1996.80;;;;;;5073832;28;20028;-63
2021/01/11 06:47:44;;;;;;;88.70;46.58;;;102.60;1996.80;;;;;;5073696;28;20040;-64
2021/01/11 06:50:22;;;;;;;83.47;44.58;;;102.60;1996.80;;;;;;5073981;28;20052;-64
2021/01/11 06:53:01;;;;;;;76.72;42.83;;;102.60;1996.80;;;;;;5074251;28;20109;-64
2021/01/11 06:55:29;;;;;;;78.57;44.30;;;102.60;1996.80;;;;;;5070423;28;20024;-61
2021/01/11 06:58:04;;;;;;;70.03;41.05;;;102.60;1996.80;;;;;;5072632;28;20386;-69
2021/01/11 07:00:42;;;;;;;86.82;44.03;;;102.60;1945.60;;;;;;5072842;28;20028;-62
2021/01/11 07:03:14;;;;;;;81.45;39.38;;;102.60;1971.20;;;;;;5072757;28;20028;-63
2021/01/11 07:05:49;;;;;;;53.67;32.05;;;102.50;1971.20;;;;;;5072511;28;20047;-66
2021/01/11 07:08:26;;;;;;;76.90;39.25;;;102.50;1971.20;;;;;;5072920;28;20029;-65
2021/01/11 07:11:06;;;;;;;63.47;35.95;;;102.60;1971.20;;;;;;5072203;28;20037;-67
2021/01/11 07:13:45;;;;;;;61.60;34.47;;;102.50;1971.20;;;;;;5072888;28;20021;-71
2021/01/11 07:16:20;;;;;;;160.38;93.97;;;102.40;1971.20;;;;;;5072682;28;20107;-67
2021/01/11 07:18:53;;;;;;;94.45;53.97;;;102.40;1971.20;;;;;;5072035;28;20485;-66
2021/01/11 07:21:26;;;;;;;108.97;62.75;;;102.40;1971.20;;;;;;5072839;28;20544;-67
2021/01/11 07:23:56;;;;;;;143.57;80.43;;;77.70;1996.80;;;;;;5071523;28;20029;-71
2021/01/11 07:26:26;;;;;;;146.38;78.55;;;102.40;1996.80;;;;;;5072043;28;20082;-68
2021/01/11 07:29:08;;;;;;;91.57;48.22;;;77.70;1996.80;;;;;;5072396;28;20497;-69
2021/01/11 07:31:36;;;;;;;94.43;53.15;;;77.70;1996.80;;;;;;5072376;28;20765;-74
2021/01/11 07:34:06;;;;;;;72.32;41.83;;;77.70;1996.80;;;;;;5072198;28;20056;-66
2021/01/11 07:36:39;;;;;;;72.57;42.00;;;77.60;1996.80;;;;;;5072244;28;20030;-70
2021/01/11 07:39:28;;;;;;;74.45;41.80;;;77.60;1996.80;;;;;;5072472;28;20025;-71
2021/01/11 07:41:58;;;;;;;72.35;42.45;;;77.60;1996.80;;;;;;5072233;28;20020;-70
2021/01/11 07:44:39;;;;;;;70.40;38.08;;;77.60;1996.80;;;;;;5072422;28;20339;-69
2021/01/11 07:47:13;;;;;;;84.30;49.92;;;77.60;1996.80;;;;;;5072455;28;20111;-69
2021/01/11 07:49:41;;;;;;;71.50;39.72;;;77.50;1996.80;;;;;;5071921;28;20419;-69
2021/01/11 07:52:15;;;;;;;74.30;38.35;;;77.50;1996.80;;;;;;5072415;28;20520;-66
2021/01/11 07:54:41;;;;;;;74.90;38.63;;;77.50;2022.40;;;;;;5072066;28;20017;-67
2021/01/11 07:57:14;;;;;;;71.80;39.75;;;77.50;2022.40;;;;;;5072056;28;20021;-68
2021/01/11 07:59:41;;;;;;;100.05;47.10;;;77.60;2022.40;;;;;;5072112;28;20031;-66
2021/01/11 08:02:12;;;;;;;88.90;44.17;;;77.60;2022.40;;;;;;5072163;28;20033;-65
2021/01/11 08:04:38;;;;;;;83.53;45.50;;;77.50;1996.80;;;;;;5071901;28;20040;-65
2021/01/11 08:07:08;;;;;;;93.93;48.13;;;77.60;1996.80;;;;;;5071792;28;20048;-68
2021/01/11 08:09:36;;;;;;;108.18;55.55;;;77.50;2022.40;;;;;;5071925;28;20103;-66
2021/01/11 08:12:11;;;;;;;119.35;60.50;;;77.50;1996.80;;;;;;5072084;28;20036;-66
2021/01/11 08:14:37;;;;;;;;;;;77.60;1996.80;;;;;;5072684;28;20429;-65
2021/01/11 08:17:05;;;;;;;109.20;54.47;;;77.60;1996.80;;;;;;5071713;28;19904;-66
2021/01/11 08:19:32;;;;;;;86.15;45.15;;;77.50;1996.80;;;;;;5071958;28;20068;-65
2021/01/11 08:22:00;;;;;;;79.53;43.22;;;77.50;2022.40;;;;;;5072027;28;20081;-70
2021/01/11 08:24:27;;;;;;;108.65;55.92;;;77.50;2022.40;;;;;;5071618;28;20052;-73
2021/01/11 08:27:14;;;;;;;105.80;57.95;;;77.60;2048.00;;;;;;5072162;28;20047;-72
2021/01/11 08:29:41;;;;;;;91.63;50.17;;;77.60;2048.00;;;;;;5072824;28;20039;-72
2021/01/11 08:32:18;;;;;;;87.80;48.50;;;77.70;2048.00;;;;;;5074015;28;20035;-72
2021/01/11 08:34:43;;;;;;;86.35;48.40;;;102.40;2022.40;;;;;;5075583;28;20020;-73
2021/01/11 08:37:19;;;;;;;93.43;50.00;;;77.70;2022.40;;;;;;5074385;28;20173;-72
2021/01/11 08:39:54;;;;;;;92.15;50.13;;;77.60;2048.00;;;;;;5075264;28;20027;-72
2021/01/11 08:42:21;;;;;;;91.15;50.78;;;77.70;2022.40;;;;;;5075268;28;20020;-66
2021/01/11 08:44:47;;;;;;;99.68;52.47;;;77.70;2022.40;;;;;;5075084;28;20039;-65
2021/01/11 08:47:12;;;;;;;88.80;51.35;;;77.70;2022.40;;;;;;5075217;28;20032;-66
2021/01/11 08:49:59;;;;;;;77.43;45.58;;;77.70;2022.40;;;;;;5075352;28;20374;-65
2021/01/11 08:52:33;;;;;;;107.20;55.55;;;77.70;2022.40;;;;;;5075177;28;20078;-72
2021/01/11 08:55:15;;;;;;;141.55;65.50;;;77.70;2022.40;;;;;;5074703;28;20108;-71
2021/01/11 08:57:40;;;;;;;125.20;64.95;;;77.70;2022.40;;;;;;5074731;28;20039;-68
2021/01/11 09:00:10;;;;;;;129.18;66.25;;;77.70;2022.40;;;;;;5074934;28;20032;-72
2021/01/11 09:02:45;;;;;;;133.85;72.60;;;77.60;2022.40;;;;;;5074618;28;20128;-72
2021/01/11 09:05:19;;;;;;;102.55;58.25;;;77.60;2022.40;;;;;;5074896;28;20072;-67
2021/01/11 09:07:45;;;;;;;111.88;62.22;;;77.60;2022.40;;;;;;5074907;28;20040;-66
2021/01/11 09:10:42;;;;;;;117.20;66.93;;;77.60;2022.40;;;;;;5074404;28;20027;-66
2021/01/11 09:13:21;;;;;;;111.78;63.35;;;77.60;2022.40;;;;;;5073989;28;20032;-66
2021/01/11 09:15:47;;;;;;;107.30;61.25;;;77.70;2022.40;;;;;;5074626;28;20029;-72
2021/01/11 09:18:14;;;;;;;105.20;58.47;;;77.70;2022.40;;;;;;5074030;28;20025;-71
2021/01/11 09:20:42;;;;;;;85.13;46.10;;;77.70;2022.40;;;;;;5074164;28;20043;-68
2021/01/11 09:23:08;;;;;;;92.45;50.03;;;77.60;2022.40;;;;;;5072780;28;20028;-65
2021/01/11 09:25:35;;;;;;;96.45;55.38;;;77.70;2022.40;;;;;;5073685;28;20024;-69
2021/01/11 09:28:05;;;;;;;91.90;50.35;;;77.70;2022.40;;;;;;5074253;28;20032;-72
2021/01/11 09:30:32;;;;;;;87.80;45.67;;;77.70;2022.40;;;;;;5074013;28;20446;-74
2021/01/11 09:32:58;;;;;;;81.18;44.55;;;77.70;1996.80;;;;;;5073451;28;20043;-68
2021/01/11 09:35:27;;;;;;;75.63;43.15;;;77.70;1996.80;;;;;;5074044;28;20048;-67
2021/01/11 09:37:55;;;;;;;75.20;41.28;;;77.70;2022.40;;;;;;5071866;28;20474;-70
2021/01/11 09:40:23;;;;;;;165.05;75.57;;;77.70;2022.40;;;;;;5073143;28;20024;-73
2021/01/11 09:42:49;;;;;;;175.52;81.65;;;77.70;2022.40;;;;;;5073967;28;20465;-71
2021/01/11 09:45:21;;;;;;;137.23;69.32;;;77.70;2022.40;;;;;;5073983;28;20029;-66
2021/01/11 09:47:51;;;;;;;93.43;51.03;;;77.70;2022.40;;;;;;5073559;28;20051;-73
2021/01/11 09:50:17;;;;;;;78.72;44.35;;;77.70;2022.40;;;;;;5073582;28;20024;-72
2021/01/11 09:52:43;;;;;;;96.03;56.15;;;77.70;2022.40;;;;;;5074099;28;20028;-73
2021/01/11 09:55:14;;;;;;;91.90;52.50;;;77.70;2022.40;;;;;;5073843;28;20382;-70
2021/01/11 09:57:43;;;;;;;78.95;46.72;;;77.70;2022.40;;;;;;5072505;28;20115;-68
2021/01/11 10:00:17;;;;;;;85.63;50.55;;;77.70;2022.40;;;;;;5072389;28;20036;-70
2021/01/11 10:02:49;;;;;;;90.37;51.90;;;77.70;2022.40;;;;;;5073466;28;20016;-69
2021/01/11 10:05:17;;;;;;;99.43;53.85;;;77.70;2022.40;;;;;;5072953;28;20052;-70
2021/01/11 10:07:47;;;;;;;95.93;51.17;;;102.40;2022.40;;;;;;5073718;28;20040;-69
2021/01/11 10:10:14;;;;;;;98.32;56.42;;;102.40;2022.40;;;;;;5071683;28;20048;-67
2021/01/11 10:12:41;;;;;;;134.07;74.38;;;102.40;2022.40;;;;;;5073785;28;20379;-69
2021/01/11 10:15:07;;;;;;;100.10;56.65;;;102.40;2022.40;;;;;;5073407;28;20078;-69
2021/01/11 10:17:36;;;;;;;89.90;50.70;;;102.40;2022.40;;;;;;5072583;28;20044;-72
2021/01/11 10:20:03;;;;;;;101.80;58.00;;;102.40;2022.40;;;;;;5073412;28;20377;-69
2021/01/11 10:22:29;;;;;;;113.47;62.40;;;102.40;2048.00;;;;;;5073710;28;20036;-71
2021/01/11 10:24:59;;;;;;;99.10;55.50;;;102.40;2048.00;;;;;;5073088;28;20078;-71
2021/01/11 10:27:27;;;;;;;86.45;49.22;;;102.40;2048.00;;;;;;5073386;28;20082;-73
2021/01/11 10:29:52;;;;;;;90.82;52.10;;;102.50;2048.00;;;;;;5073277;28;20029;-73
2021/01/11 10:32:18;;;;;;;98.13;53.20;;;102.50;2048.00;;;;;;5072838;28;20516;-69
2021/01/11 10:34:44;;;;;;;81.15;48.40;;;102.50;2048.00;;;;;;5073617;28;20029;-68
2021/01/11 10:37:10;;;;;;;84.28;48.92;;;102.60;2048.00;;;;;;5073073;28;20481;-73
2021/01/11 10:39:40;;;;;;;80.78;46.97;;;102.60;2048.00;;;;;;5073008;28;20068;-72
2021/01/11 10:42:10;;;;;;;82.53;48.63;;;102.60;2048.00;;;;;;5072742;28;20501;-71
2021/01/11 10:44:38;;;;;;;88.68;51.90;;;102.60;2022.40;;;;;;5072961;28;20024;-69
2021/01/11 10:47:04;;;;;;;94.18;52.67;;;102.70;2022.40;;;;;;5072860;28;20036;-72
2021/01/11 10:49:34;;;;;;;105.53;59.80;;;102.70;2022.40;;;;;;5073106;28;20363;-73
2021/01/11 10:52:00;;;;;;;94.85;53.67;;;102.70;2022.40;;;;;;5072491;28;20025;-72
2021/01/11 10:54:27;;;;;;;99.13;56.97;;;102.70;2022.40;;;;;;5072745;28;20025;-68
2021/01/11 10:56:56;;;;;;;90.45;53.63;;;102.70;2022.40;;;;;;5072830;28;20474;-72
2021/01/11 10:59:27;;;;;;;90.85;51.50;;;102.80;2022.40;;;;;;5072668;28;20041;-71
2021/01/11 11:01:54;;;;;;;81.30;45.75;;;102.80;2048.00;;;;;;5072405;28;20029;-70
2021/01/11 11:04:25;;;;;;;85.35;50.08;;;102.80;2022.40;;;;;;5071317;28;20033;-74
2021/01/11 11:06:57;;;;;;;83.97;48.88;;;102.80;2022.40;;;;;;5071225;28;20128;-73
2021/01/11 11:09:27;;;;;;;88.07;51.05;;;102.90;2022.40;;;;;;5072364;28;20052;-72
2021/01/11 11:11:56;;;;;;;107.82;59.78;;;102.90;2022.40;;;;;;5072383;28;20424;-69
2021/01/11 11:14:22;;;;;;;107.20;61.35;;;102.90;2022.40;;;;;;5072919;28;20028;-73
2021/01/11 11:16:49;;;;;;;100.63;54.72;;;102.80;2022.40;;;;;;5071220;28;20435;-72
2021/01/11 11:19:16;;;;;;;96.53;53.90;;;102.90;1996.80;;;;;;5072850;28;20028;-69
2021/01/11 11:21:43;;;;;;;103.03;60.10;;;102.90;1996.80;;;;;;5072569;28;20028;-71
2021/01/11 11:24:10;;;;;;;84.72;51.38;;;102.90;1996.80;;;;;;5070962;28;20037;-68
2021/01/11 11:26:37;;;;;;;79.90;46.40;;;102.90;2022.40;;;;;;5072355;28;20506;-72
2021/01/11 11:29:03;;;;;;;102.32;59.70;;;102.90;1996.80;;;;;;5072574;28;20040;-68
2021/01/11 11:31:33;;;;;;;112.28;60.78;;;102.90;1996.80;;;;;;5072149;28;20494;-71
2021/01/11 11:34:01;;;;;;;89.05;50.97;;;102.90;1996.80;;;;;;5072386;28;20033;-73
2021/01/11 11:36:28;;;;;;;90.72;51.90;;;102.90;1996.80;;;;;;5072221;28;20039;-68
2021/01/11 11:38:54;;;;;;;81.50;47.38;;;102.90;1996.80;;;;;;5072311;28;20028;-70
2021/01/11 11:41:22;;;;;;;85.95;48.60;;;102.90;1996.80;;;;;;5072194;28;20028;-68
2021/01/11 11:43:52;;;;;;;73.97;45.90;;;102.90;1996.80;;;;;;5072643;28;20378;-73
2021/01/11 11:46:19;;;;;;;91.18;51.20;;;102.90;1996.80;;;;;;5071816;28;20029;-69
2021/01/11 11:48:47;;;;;;;84.45;50.05;;;102.90;1996.80;;;;;;5072378;28;20073;-68
2021/01/11 11:51:13;;;;;;;226.10;103.47;;;102.90;1996.80;;;;;;5072509;28;20532;-69
2021/01/11 11:53:42;;;;;;;192.95;94.07;;;103.00;1996.80;;;;;;5072075;28;20020;-68
2021/01/11 11:56:12;;;;;;;112.90;64.85;;;103.00;2022.40;;;;;;5071681;28;20111;-70
2021/01/11 11:58:41;;;;;;;122.15;81.93;;;103.10;2048.00;;;;;;5072224;28;20067;-68
2021/01/11 12:01:07;;;;;;;120.50;71.85;;;103.10;1996.80;;;;;;5072052;28;20504;-69
2021/01/11 12:03:33;;;;;;;119.50;70.63;;;103.20;1996.80;;;;;;5072033;28;20111;-68
2021/01/11 12:06:03;;;;;;;95.35;54.80;;;103.10;1971.20;;;;;;5073617;28;20036;-68
2021/01/11 12:08:29;;;;;;;84.88;48.45;;;103.10;1971.20;;;;;;5075519;28;20094;-67
2021/01/11 12:10:58;;;;;;;83.78;49.60;;;103.10;1971.20;;;;;;5074777;28;20471;-67
2021/01/11 12:13:25;;;;;;;83.03;50.22;;;103.20;1971.20;;;;;;5076169;28;20043;-73
2021/01/11 12:15:57;;;;;;;82.53;47.40;;;103.10;1971.20;;;;;;5075418;28;20463;-75
2021/01/11 12:18:23;;;;;;;81.78;48.55;;;103.10;1971.20;;;;;;5076001;28;20479;-68
2021/01/11 12:20:48;;;;;;;85.20;48.75;;;103.10;1971.20;;;;;;5075912;28;20044;-72
2021/01/11 12:23:15;;;;;;;93.63;52.45;;;103.10;1971.20;;;;;;5075361;28;20397;-72
2021/01/11 12:25:41;;;;;;;93.68;54.28;;;103.10;1971.20;;;;;;5075553;28;20031;-76